Time;durP1;ratioP1;P1;durP2;ratioP2;P2;SDS_P1;SDS_P2;PMS_P1;PMS_P2;Temp;Humidity;BMP_temperature;BMP_pressure;BME280_temperature;BME280_humidity;BME280_pressure;Samples;Min_cycle;Max_cycle;Signal;HPM_P1;HPM_P2
2022/04/28 00:01:00;;;;;;;5.07;3.47;;;;;;;10.10;63.07;100923.17;1675984;84;21588;-70
2022/04/28 00:03:27;;;;;;;4.57;3.70;;;;;;;10.11;63.04;100925.33;1685219;84;21063;-70
2022/04/28 00:05:54;;;;;;;4.63;3.27;;;;;;;10.14;62.97;100931.66;1678951;84;21047;-70
2022/04/28 00:08:20;;;;;;;5.30;2.87;;;;;;;10.15;62.92;100934.64;1685528;84;21117;-70
2022/04/28 00:10:49;;;;;;;3.73;2.87;;;;;;;10.15;62.86;100933.30;1699286;84;21553;-70
2022/04/28 00:13:17;;;;;;;4.20;3.07;;;;;;;10.14;62.72;100929.82;1682611;84;21550;-72
2022/04/28 00:15:45;;;;;;;4.43;2.60;;;;;;;10.13;62.67;100934.84;1687477;84;21085;-71
2022/04/28 00:18:11;;;;;;;2.73;2.53;;;;;;;10.13;62.70;100936.17;1698463;84;21108;-70
2022/04/28 00:20:37;;;;;;;3.87;2.47;;;;;;;10.13;62.61;100931.31;1689240;84;21116;-70
2022/04/28 00:23:05;;;;;;;2.73;2.53;;;;;;;10.12;62.62;100937.16;1690962;84;21129;-70
2022/04/28 00:25:32;;;;;;;2.73;2.53;;;;;;;10.10;62.56;100935.16;1657529;85;21101;-71
2022/04/28 00:27:58;;;;;;;2.62;1.90;;;;;;;10.06;62.68;100933.84;1650907;85;21117;-71
2022/04/28 00:30:24;;;;;;;3.52;2.85;;;;;;;10.04;62.66;100930.53;1678437;84;21061;-69
2022/04/28 00:32:52;;;;;;;3.30;2.40;;;;;;;10.02;62.69;100932.53;1678622;84;21629;-71
2022/04/28 00:35:20;;;;;;;2.77;2.53;;;;;;;10.00;62.75;100935.87;1705292;82;21041;-70
2022/04/28 00:37:47;;;;;;;2.10;2.00;;;;;;;10.00;62.66;100931.02;1688352;82;21093;-71
2022/04/28 00:40:14;;;;;;;3.00;2.03;;;;;;;10.00;62.62;100941.20;1687123;82;21082;-70
2022/04/28 00:42:42;;;;;;;2.57;1.50;;;;;;;9.97;62.63;100931.38;1708800;82;21085;-69
2022/04/28 00:45:09;;;;;;;3.07;2.23;;;;;;;9.92;62.67;100931.36;1684204;82;21558;-70
2022/04/28 00:50:41;;;;;;;2.57;1.67;;;;;;;9.85;62.87;100930.88;1659637;86;20180;-71
2022/04/28 00:53:12;;;;;;;2.23;1.43;;;;;;;9.78;62.90;100938.73;1649638;86;21069;-70
2022/04/28 00:55:40;;;;;;;2.93;1.50;;;;;;;9.72;63.05;100938.08;1666908;82;21042;-69
2022/04/28 00:58:10;;;;;;;2.07;1.20;;;;;;;9.64;63.33;100938.88;1722430;82;21939;-70
2022/04/28 01:00:38;;;;;;;1.73;1.60;;;;;;;9.58;63.05;100945.39;1711850;82;21079;-72
2022/04/28 01:03:06;;;;;;;2.03;1.83;;;;;;;9.52;63.66;100951.70;1676566;84;21586;-71
2022/04/28 01:05:34;;;;;;;3.43;2.20;;;;;;;9.45;64.03;100952.03;1676283;84;21071;-68
2022/04/28 01:08:03;;;;;;;2.50;2.30;;;;;;;9.41;64.25;100953.88;1675425;83;21069;-68
2022/04/28 01:10:31;;;;;;;2.17;1.90;;;;;;;9.39;64.51;100955.36;1676042;81;21304;-66
2022/04/28 01:13:07;;;;;;;1.32;1.22;;;;;;;9.32;65.07;100945.04;1683541;84;21637;-70
2022/04/28 01:15:49;;;;;;;2.93;1.60;;;;;;;9.32;65.07;100945.04;1676951;84;21146;-70
2022/04/28 01:18:19;;;;;;;3.53;2.03;;;;;;;9.30;64.88;100941.72;1671950;85;21085;-70
2022/04/28 01:20:47;;;;;;;1.70;1.10;;;;;;;9.23;65.31;100934.06;1682123;84;21138;-69
2022/04/28 01:23:15;;;;;;;2.77;0.83;;;;;;;8.77;65.02;100864.86;1682273;82;21126;-70
2022/04/28 01:25:44;;;;;;;2.30;1.53;;;;;;;9.16;64.99;100934.72;1682118;84;21051;-70
2022/04/28 01:28:11;;;;;;;1.40;1.30;;;;;;;9.10;65.04;100940.70;1682296;84;21154;-69
2022/04/28 01:30:39;;;;;;;1.83;1.53;;;;;;;9.07;65.38;100941.53;1682267;84;21062;-69
2022/04/28 01:33:08;;;;;;;2.67;1.27;;;;;;;9.03;65.41;100941.02;1681308;83;21137;-69
2022/04/28 01:35:35;;;;;;;3.03;1.83;;;;;;;9.02;65.40;100935.86;1665286;85;21064;-69
2022/04/28 01:38:03;;;;;;;1.40;1.30;;;;;;;9.01;65.61;100940.36;1658268;85;21183;-70
2022/04/28 01:40:30;;;;;;;3.27;1.35;;;;;;;8.99;65.65;100939.69;1658350;85;21172;-71
2022/04/28 01:43:00;;;;;;;4.83;1.57;;;;;;;8.96;65.94;100933.36;1658244;85;21104;-71
2022/04/28 01:45:28;;;;;;;1.37;1.33;;;;;;;8.96;66.06;100938.17;1658257;85;21054;-69
2022/04/28 01:48:03;;;;;;;1.23;1.10;;;;;;;8.95;66.26;100937.85;1638412;85;21089;-70
2022/04/28 01:56:31;;;;;;;1.57;0.93;;;;;;;8.85;66.82;100934.99;1639079;85;21565;-70
2022/04/28 01:59:00;;;;;;;1.93;1.07;;;;;;;8.79;66.80;100940.97;1641520;85;21074;-70
2022/04/28 02:01:34;;;;;;;3.13;2.07;;;;;;;8.75;67.34;100935.96;1643864;85;21113;-70
2022/04/28 02:04:00;;;;;;;2.70;2.10;;;;;;;8.73;67.72;100938.45;1632908;86;21104;-70
2022/04/28 02:06:28;;;;;;;2.33;2.13;;;;;;;8.68;68.35;100932.31;1656684;85;21089;-69
2022/04/28 02:08:55;;;;;;;3.05;2.55;;;;;;;8.62;68.63;100931.60;1656760;85;21128;-71
2022/04/28 02:11:23;;;;;;;1.90;1.80;;;;;;;8.60;68.89;100936.75;1658478;84;21179;-70
2022/04/28 02:13:54;;;;;;;2.13;1.87;;;;;;;8.62;69.18;100939.58;1666207;84;21052;-70
2022/04/28 02:16:27;;;;;;;3.40;2.80;;;;;;;8.62;69.39;100932.11;1625115;87;21120;-69
2022/04/28 02:18:53;;;;;;;6.03;3.20;;;;;;;8.61;69.42;100932.61;1670250;84;21004;-69
2022/04/28 02:21:19;;;;;;;4.47;2.17;;;;;;;8.63;69.57;100936.45;1628692;86;21080;-70
2022/04/28 02:23:46;;;;;;;2.23;2.03;;;;;;;8.64;69.54;100936.77;1646646;86;21153;-70
2022/04/28 02:26:13;;;;;;;;;;;;;;;8.67;69.56;100936.45;1672468;84;21079;-70
2022/04/28 02:28:39;;;;;;;1.47;1.33;;;;;;;8.68;69.62;100944.75;1670022;84;20128;-71
2022/04/28 02:31:07;;;;;;;1.67;1.20;;;;;;;8.61;69.94;100944.58;1669319;84;21619;-71
2022/04/28 02:33:35;;;;;;;3.03;1.77;;;;;;;8.62;70.45;100942.73;1668802;84;21055;-71
2022/04/28 02:36:03;;;;;;;4.30;1.90;;;;;;;8.64;70.29;100940.24;1668526;84;21120;-71
2022/04/28 02:38:32;;;;;;;2.23;1.97;;;;;;;8.66;70.33;100942.24;1668501;84;21563;-70
2022/04/28 02:40:59;;;;;;;6.93;2.53;;;;;;;8.68;70.57;100944.27;1670264;84;21017;-69
2022/04/28 02:43:26;;;;;;;2.12;1.90;;;;;;;8.71;70.69;100945.26;1670184;84;21114;-68
2022/04/28 02:45:54;;;;;;;2.63;2.33;;;;;;;8.76;70.66;100942.95;1688817;84;21686;-69
2022/04/28 02:48:25;;;;;;;2.63;2.40;;;;;;;8.74;70.39;100934.82;1670133;84;21079;-70
2022/04/28 02:50:54;;;;;;;3.53;2.73;;;;;;;8.85;70.74;100947.78;1631854;86;21096;-70
2022/04/28 02:53:20;;;;;;;3.12;2.55;;;;;;;8.91;70.92;100951.62;1687418;82;21082;-69
2022/04/28 02:55:48;;;;;;;3.10;2.90;;;;;;;9.00;70.81;100955.96;1644489;86;21683;-70
2022/04/28 02:58:15;;;;;;;3.02;2.42;;;;;;;9.07;70.50;100950.33;1663275;84;21043;-70
2022/04/28 03:00:41;;;;;;;3.22;2.90;;;;;;;9.13;70.79;100956.31;1685406;83;21135;-70
2022/04/28 03:03:10;;;;;;;12.60;3.40;;;;;;;9.16;70.55;100957.84;1693929;83;21043;-70
2022/04/28 03:10:46;;;;;;;4.77;3.07;;;;;;;9.21;71.04;100952.88;1693556;83;21119;-70
2022/04/28 03:10:51;;;;;;;3.07;2.20;;;;;;;9.52;70.17;100959.69;1692987;83;21135;-70
2022/04/28 03:13:22;;;;;;;2.97;1.73;;;;;;;9.56;69.62;100961.52;1692758;83;21538;-71
2022/04/28 03:15:51;;;;;;;1.93;1.37;;;;;;;9.58;69.44;100962.19;1692893;83;21004;-71
2022/04/28 03:18:20;;;;;;;1.03;0.93;;;;;;;9.62;68.98;100957.36;1692886;83;21042;-68
2022/04/28 03:20:46;;;;;;;1.70;1.00;;;;;;;9.63;68.61;100961.20;1693713;83;21044;-71
2022/04/28 03:23:14;;;;;;;1.60;1.10;;;;;;;9.64;68.63;100966.84;1679960;83;21126;-73
2022/04/28 03:25:41;;;;;;;1.30;0.90;;;;;;;9.67;68.51;100968.35;1693944;83;21605;-71
2022/04/28 03:28:08;;;;;;;;;;;;;;;9.67;68.33;100971.02;1695745;83;21051;-70
2022/04/28 03:30:35;;;;;;;15.23;3.65;;;;;;;9.57;68.41;100976.51;1692654;83;20145;-71
2022/04/28 03:33:05;;;;;;;2.67;1.00;;;;;;;9.43;68.95;100984.62;1692313;83;21083;-71
2022/04/28 03:35:32;;;;;;;1.53;1.30;;;;;;;9.33;69.20;100982.13;1692347;83;21035;-72
2022/04/28 03:38:01;;;;;;;4.43;1.40;;;;;;;9.29;69.33;100986.63;1692476;83;21095;-70
2022/04/28 03:40:28;;;;;;;9.10;0.80;;;;;;;9.28;69.83;100980.95;1693167;83;21075;-71
2022/04/28 03:42:57;;;;;;;;;;;;;;;9.32;69.91;100986.28;1695468;83;21075;-71
2022/04/28 03:45:26;;;;;;;4.57;1.07;;;;;;;9.39;69.77;100989.95;1671956;84;20182;-72
2022/04/28 03:47:55;;;;;;;6.03;1.23;;;;;;;9.40;69.69;100979.66;1692460;83;21071;-71
2022/04/28 03:50:22;;;;;;;2.47;0.80;;;;;;;9.46;69.71;100984.82;1693449;83;21150;-70
2022/04/28 03:52:48;;;;;;;3.17;1.20;;;;;;;9.59;69.23;100984.30;1692621;83;22207;-70
2022/04/28 03:55:14;;;;;;;1.72;1.22;;;;;;;9.72;68.57;100989.98;1692886;83;21378;-72
2022/04/28 03:57:42;;;;;;;1.23;1.13;;;;;;;9.86;68.19;100989.80;1674062;83;21058;-73
2022/04/28 04:00:10;;;;;;;;;;;;;;;10.09;67.17;100989.94;1686359;83;21184;-74
2022/04/28 04:02:41;;;;;;;2.97;1.87;;;;;;;10.47;66.45;100987.53;1693660;83;20181;-70
2022/04/28 04:05:09;;;;;;;2.20;2.00;;;;;;;10.66;65.43;100989.81;1692572;83;21111;-72
2022/04/28 04:07:38;;;;;;;2.20;1.80;;;;;;;10.83;63.40;100991.91;1692711;83;21618;-72
2022/04/28 04:10:16;;;;;;;3.17;1.23;;;;;;;11.17;62.13;100988.55;1691781;83;21115;-71
2022/04/28 04:12:46;;;;;;;2.00;1.90;;;;;;;11.85;59.77;100994.39;1692736;83;21201;-70
2022/04/28 04:15:16;;;;;;;2.65;1.20;;;;;;;12.61;56.37;100998.30;1693634;83;21118;-72
2022/04/28 04:18:01;;;;;;;2.57;1.27;;;;;;;13.17;53.62;101002.28;1692581;83;21015;-72
2022/04/28 04:20:29;;;;;;;2.60;1.87;;;;;;;13.32;53.64;101011.13;1693012;83;21063;-74
2022/04/28 04:22:59;;;;;;;2.45;1.12;;;;;;;13.76;52.25;101015.45;1692736;83;21156;-72
2022/04/28 04:25:27;;;;;;;1.55;1.20;;;;;;;14.35;50.53;101011.58;1693664;83;21595;-72
2022/04/28 04:27:55;;;;;;;1.45;1.27;;;;;;;15.07;48.05;101020.21;1693730;83;21079;-72
2022/04/28 04:33:23;;;;;;;1.22;0.80;;;;;;;16.00;43.95;101027.61;1677676;83;21158;-72
2022/04/28 04:35:51;;;;;;;2.60;0.50;;;;;;;16.12;42.80;101029.16;1693658;85;21066;-72
2022/04/28 04:38:17;;;;;;;3.40;0.53;;;;;;;16.31;42.70;101024.78;1693276;83;21035;-72
2022/04/28 04:40:44;;;;;;;;;;;;;;;16.81;40.34;101029.11;1696683;83;21127;-71
2022/04/28 04:43:13;;;;;;;4.37;0.72;;;;;;;17.35;38.93;101027.53;1693790;83;20168;-73
2022/04/28 04:45:44;;;;;;;1.32;0.35;;;;;;;17.66;37.87;101031.59;1693235;83;21122;-73
2022/04/28 04:48:31;;;;;;;2.62;0.53;;;;;;;17.66;37.15;101035.62;1693827;83;21020;-72
2022/04/28 04:50:59;;;;;;;1.67;0.60;;;;;;;17.60;37.17;101030.30;1694059;83;21055;-73
2022/04/28 04:53:29;;;;;;;1.15;0.45;;;;;;;17.79;36.87;101028.50;1693652;83;21075;-73
2022/04/28 04:55:56;;;;;;;1.05;0.30;;;;;;;17.97;36.91;101025.05;1692863;83;21105;-72
2022/04/28 04:58:22;;;;;;;1.75;0.95;;;;;;;17.97;36.27;101031.30;1688371;83;21096;-72
2022/04/28 05:00:50;;;;;;;3.90;3.60;;;;;;;17.28;37.07;101033.80;1687343;83;20995;-72
2022/04/28 05:03:18;;;;;;;1.82;0.40;;;;;;;16.27;38.44;101042.38;1683909;83;21131;-71
2022/04/28 05:06:03;;;;;;;2.55;0.95;;;;;;;15.32;40.29;101038.46;1692704;83;21083;-70
2022/04/28 05:08:31;;;;;;;3.87;0.82;;;;;;;14.49;42.20;101044.66;1691709;83;21047;-71
2022/04/28 05:11:01;;;;;;;0.70;0.70;;;;;;;14.02;43.46;101048.34;1692785;83;21115;-72
2022/04/28 05:13:29;;;;;;;3.47;1.05;;;;;;;14.16;44.07;101045.24;1693642;83;21059;-72
2022/04/28 05:15:57;;;;;;;1.02;0.98;;;;;;;14.82;43.27;101043.22;1693813;83;21059;-72
2022/04/28 05:18:28;;;;;;;2.92;0.62;;;;;;;15.50;42.27;101041.90;1690820;83;21047;-72
2022/04/28 05:20:58;;;;;;;1.40;0.82;;;;;;;15.80;39.94;101042.91;1693337;83;21367;-71
2022/04/28 05:23:44;;;;;;;0.95;0.57;;;;;;;15.65;40.20;101049.78;1694118;82;21050;-71
2022/04/28 05:26:18;;;;;;;0.60;0.50;;;;;;;15.39;40.30;101044.69;1689871;83;21070;-72
2022/04/28 05:29:06;;;;;;;0.72;0.60;;;;;;;15.14;40.64;101047.06;1624638;87;21145;-72
2022/04/28 05:31:36;;;;;;;0.55;0.55;;;;;;;14.76;41.69;101051.55;1588566;89;21128;-72
2022/04/28 05:34:05;;;;;;;1.25;1.15;;;;;;;14.41;42.23;101038.13;1649794;83;21066;-70
2022/04/28 05:36:40;;;;;;;2.37;0.40;;;;;;;14.15;42.52;101054.33;1693432;83;21116;-72
2022/04/28 05:39:07;;;;;;;0.65;0.50;;;;;;;13.83;42.73;101057.87;1692770;83;21074;-72
2022/04/28 05:41:35;;;;;;;1.57;0.60;;;;;;;13.65;43.13;101061.50;1693810;83;21023;-74
2022/04/28 05:46:48;;;;;;;0.82;0.72;;;;;;;13.50;43.89;101056.72;1696123;83;21050;-71
2022/04/28 05:49:15;;;;;;;2.17;1.85;;;;;;;13.40;44.13;101059.70;1693670;83;21099;-71
2022/04/28 05:51:43;;;;;;;2.20;1.55;;;;;;;13.25;44.92;101060.53;1693548;83;21006;-72
2022/04/28 05:54:14;;;;;;;3.72;1.02;;;;;;;13.13;45.45;101057.18;1692611;83;21131;-73
2022/04/28 05:56:44;;;;;;;2.25;1.35;;;;;;;12.99;45.91;101053.52;1693435;84;21090;-71
2022/04/28 05:59:14;;;;;;;4.10;1.30;;;;;;;12.90;47.40;101059.98;1684088;83;21036;-72
2022/04/28 06:01:43;;;;;;;10.10;7.78;;;;;;;12.92;46.43;101054.80;1692764;83;21027;-72
2022/04/28 06:04:11;;;;;;;1.77;1.17;;;;;;;12.99;46.37;101054.86;1692670;83;21599;-70
2022/04/28 06:06:40;;;;;;;2.12;0.78;;;;;;;13.17;45.95;101063.33;1692345;84;21078;-72
2022/04/28 06:09:11;;;;;;;1.50;0.72;;;;;;;13.57;45.73;101071.01;1691700;83;21611;-72
2022/04/28 06:11:37;;;;;;;1.22;0.80;;;;;;;14.18;44.55;101070.04;1693608;83;21590;-72
2022/04/28 06:14:06;;;;;;;1.30;0.93;;;;;;;14.83;42.31;101067.70;1692424;83;21035;-73
2022/04/28 06:16:39;;;;;;;0.88;0.78;;;;;;;15.31;41.37;101065.84;1692539;83;21032;-74
2022/04/28 06:19:20;;;;;;;0.55;0.42;;;;;;;15.81;39.49;101065.56;1693734;83;21063;-73
2022/04/28 06:22:04;;;;;;;0.85;0.50;;;;;;;16.18;39.70;101067.84;1692423;83;21063;-74
2022/04/28 06:24:34;;;;;;;2.05;0.90;;;;;;;16.42;38.56;101065.03;1693797;83;21043;-74
2022/04/28 06:27:03;;;;;;;0.75;0.30;;;;;;;16.69;38.61;101064.47;1685599;85;21055;-73
2022/04/28 06:29:30;;;;;;;2.98;0.93;;;;;;;16.87;37.68;101068.67;1674689;83;21067;-74
2022/04/28 06:31:59;;;;;;;1.67;0.70;;;;;;;16.93;36.48;101073.23;1694420;83;21087;-72
2022/04/28 06:34:37;;;;;;;3.33;1.10;;;;;;;16.68;37.07;101073.58;1679640;82;21079;-73
2022/04/28 06:37:05;;;;;;;2.55;1.40;;;;;;;16.34;37.84;101074.14;1692799;83;21082;-72
2022/04/28 06:39:33;;;;;;;0.60;0.45;;;;;;;16.21;37.55;101075.50;1692814;83;21051;-73
2022/04/28 06:42:01;;;;;;;1.70;0.50;;;;;;;16.15;36.49;101075.28;1670925;84;21449;-73
2022/04/28 06:44:36;;;;;;;0.62;0.45;;;;;;;16.23;35.97;101080.97;1690121;83;21024;-72
2022/04/28 06:47:21;;;;;;;0.20;0.20;;;;;;;16.52;35.45;101078.38;1702817;83;21551;-73
2022/04/28 06:50:08;;;;;;;0.37;0.20;;;;;;;16.81;33.83;101076.75;1695554;83;21066;-70
2022/04/28 06:52:42;;;;;;;0.50;0.10;;;;;;;16.97;31.43;101083.06;1690292;83;21634;-70
2022/04/28 06:55:11;;;;;;;0.33;0.30;;;;;;;16.71;28.51;101082.58;1690628;83;21828;-73
2022/04/28 06:57:40;;;;;;;1.65;0.20;;;;;;;16.57;29.88;101087.67;1670498;84;21012;-73
2022/04/28 07:00:09;;;;;;;1.62;0.33;;;;;;;16.41;31.40;101083.57;1666682;84;22371;-71
2022/04/28 07:02:37;;;;;;;3.15;0.42;;;;;;;16.28;32.19;101089.25;1707964;82;21037;-70
2022/04/28 07:05:07;;;;;;;0.20;0.20;;;;;;;16.09;32.12;101092.26;1706889;82;21153;-72
2022/04/28 07:07:34;;;;;;;2.33;0.23;;;;;;;15.90;33.16;101097.11;1706958;82;21042;-72
2022/04/28 07:10:01;;;;;;;0.98;0.10;;;;;;;15.68;29.49;101092.38;1707387;82;21062;-71
2022/04/28 07:12:29;;;;;;;2.35;0.30;;;;;;;15.44;29.24;101101.30;1685190;82;21113;-72
2022/04/28 07:14:59;;;;;;;0.75;0.10;;;;;;;15.13;30.56;101100.47;1707182;82;21031;-72
2022/04/28 07:17:31;;;;;;;2.00;0.10;;;;;;;14.88;31.19;101102.31;1655018;82;21062;-73
2022/04/28 07:20:00;;;;;;;0.78;0.33;;;;;;;14.81;31.25;101109.49;1708350;82;21086;-73
2022/04/28 07:22:28;;;;;;;1.85;0.10;;;;;;;14.75;30.29;101112.45;1708714;82;21038;-70
2022/04/28 07:24:55;;;;;;;0.10;0.10;;;;;;;14.58;30.29;101111.93;1708662;82;21069;-72
2022/04/28 07:27:21;;;;;;;1.65;0.10;;;;;;;14.44;30.87;101114.16;1708732;82;21062;-73
2022/04/28 07:29:50;;;;;;;0.17;0.10;;;;;;;14.36;30.68;101110.28;1707187;82;21134;-72
2022/04/28 07:32:18;;;;;;;0.95;0.35;;;;;;;14.37;30.37;101119.48;1703765;82;21130;-72
2022/04/28 07:35:05;;;;;;;0.20;0.10;;;;;;;14.39;30.83;101120.61;1707544;82;21593;-71
2022/04/28 07:37:52;;;;;;;0.75;0.45;;;;;;;14.43;31.07;101120.56;1708271;82;21607;-72
2022/04/28 07:40:25;;;;;;;1.87;0.20;;;;;;;14.50;31.79;101121.41;1704100;82;21629;-72
2022/04/28 07:42:55;;;;;;;1.02;0.40;;;;;;;14.57;32.86;101112.94;1708342;82;21070;-72
2022/04/28 07:45:22;;;;;;;;;;;;;;;14.70;33.06;101117.58;1709750;82;21169;-72
2022/04/28 07:47:51;;;;;;;3.08;0.53;;;;;;;14.88;33.83;101109.03;1708143;82;20215;-73
2022/04/28 07:50:23;;;;;;;0.80;0.50;;;;;;;14.54;34.17;101049.42;1708556;82;21031;-72
2022/04/28 07:52:51;;;;;;;1.50;0.20;;;;;;;15.04;34.89;101109.72;1708958;82;22040;-72
2022/04/28 07:55:18;;;;;;;1.47;0.33;;;;;;;15.21;34.89;101116.41;1707366;82;21031;-73
2022/04/28 07:57:46;;;;;;;1.62;0.40;;;;;;;15.35;34.79;101114.09;1707077;82;21071;-74
2022/04/28 08:00:16;;;;;;;2.05;0.40;;;;;;;15.48;35.74;101111.98;1699780;82;21439;-71
2022/04/28 08:02:42;;;;;;;1.15;0.30;;;;;;;15.54;36.51;101111.69;1708537;82;21534;-71
2022/04/28 08:05:09;;;;;;;0.85;0.20;;;;;;;15.63;37.07;101115.82;1685149;84;21119;-71
2022/04/28 08:07:37;;;;;;;0.40;0.40;;;;;;;15.74;37.04;101111.23;1708392;82;21089;-73
2022/04/28 08:10:06;;;;;;;0.40;0.30;;;;;;;15.80;36.82;101112.80;1707645;82;21034;-72
2022/04/28 08:12:34;;;;;;;0.20;0.20;;;;;;;15.79;37.28;101103.91;1708156;82;21054;-71
2022/04/28 08:15:02;;;;;;;0.75;0.60;;;;;;;15.75;37.83;101104.83;1707441;82;21090;-72
2022/04/28 08:17:31;;;;;;;1.05;0.80;;;;;;;15.80;36.97;101108.77;1707339;82;21090;-69
2022/04/28 08:20:00;;;;;;;1.95;0.37;;;;;;;15.82;37.66;101109.39;1708571;82;21575;-72
2022/04/28 08:22:27;;;;;;;1.12;0.30;;;;;;;15.80;37.20;101116.83;1707296;82;21531;-71
2022/04/28 08:24:54;;;;;;;1.02;0.30;;;;;;;15.74;36.82;101119.81;1708416;82;21594;-73
2022/04/28 08:27:24;;;;;;;;;;;;;;;15.67;36.29;101119.78;1711366;82;21479;-72
2022/04/28 08:29:51;;;;;;;1.85;0.42;;;;;;;15.55;37.13;101122.73;1709079;82;20168;-72
2022/04/28 08:32:20;;;;;;;1.22;0.30;;;;;;;15.26;37.99;101126.05;1707599;82;21098;-73
2022/04/28 08:34:46;;;;;;;1.20;0.30;;;;;;;15.10;38.84;101132.56;1686654;84;21015;-73
2022/04/28 08:37:12;;;;;;;1.52;0.25;;;;;;;14.94;39.54;101133.73;1707481;82;21538;-70
2022/04/28 08:39:39;;;;;;;4.05;0.20;;;;;;;14.82;39.73;101135.29;1707495;82;21046;-77
2022/04/28 08:42:06;;;;;;;0.70;0.50;;;;;;;14.74;40.87;101142.16;1707606;82;21038;-73
2022/04/28 08:44:44;;;;;;;2.70;0.30;;;;;;;14.65;41.90;101135.28;1683410;84;21119;-72
2022/04/28 08:47:13;;;;;;;2.17;0.40;;;;;;;14.43;44.16;101139.34;1702997;82;21007;-71
2022/04/28 08:49:46;;;;;;;0.95;0.20;;;;;;;14.29;44.36;101141.05;1707317;82;21023;-72
2022/04/28 08:52:31;;;;;;;2.67;0.13;;;;;;;14.24;44.54;101141.31;1708001;82;21989;-73
2022/04/28 08:55:02;;;;;;;0.42;0.42;;;;;;;14.15;43.99;101133.94;1706216;82;21067;-72
2022/04/28 08:57:34;;;;;;;1.20;0.35;;;;;;;14.07;43.97;101134.05;1708986;82;21593;-72
2022/04/28 09:00:03;;;;;;;0.20;0.20;;;;;;;13.99;42.30;101130.98;1708346;82;21082;-72
2022/04/28 09:02:34;;;;;;;2.12;0.17;;;;;;;13.93;42.60;101127.74;1685679;84;21301;-72
2022/04/28 09:05:18;;;;;;;1.40;0.70;;;;;;;13.89;42.24;101127.81;1705917;82;21668;-73
2022/04/28 09:07:53;;;;;;;0.10;0.10;;;;;;;13.85;42.01;101123.86;1707664;82;21682;-73
2022/04/28 09:10:38;;;;;;;2.30;0.50;;;;;;;13.88;42.88;101126.14;1706977;82;21102;-74
2022/04/28 09:16:16;;;;;;;1.00;0.10;;;;;;;13.89;41.09;101119.77;1707141;82;21042;-72
2022/04/28 09:18:43;;;;;;;1.52;0.15;;;;;;;13.88;40.59;101117.61;1708080;82;21197;-71
2022/04/28 09:21:10;;;;;;;0.20;0.10;;;;;;;13.94;40.04;101118.70;1707775;82;21535;-73
2022/04/28 09:23:38;;;;;;;0.82;0.25;;;;;;;14.02;39.08;101115.88;1707499;82;21045;-73
2022/04/28 09:26:09;;;;;;;2.20;0.75;;;;;;;14.09;38.34;101116.77;1708615;82;21348;-72
2022/04/28 09:28:38;;;;;;;1.02;0.28;;;;;;;14.15;38.14;101120.02;1708874;82;21058;-72
2022/04/28 09:31:09;;;;;;;0.82;0.20;;;;;;;14.24;37.62;101117.19;1708673;82;21070;-72
2022/04/28 09:33:38;;;;;;;3.50;0.33;;;;;;;14.34;37.44;101114.50;1703954;82;21037;-72
2022/04/28 09:36:08;;;;;;;0.72;0.10;;;;;;;14.47;37.09;101119.66;1687674;82;21070;-72
2022/04/28 09:38:38;;;;;;;0.45;0.10;;;;;;;14.55;36.98;101108.77;1705827;82;21096;-73
2022/04/28 09:43:56;;;;;;;1.80;0.20;;;;;;;14.58;36.87;101108.42;1708727;82;21374;-72
2022/04/28 09:46:25;;;;;;;0.50;0.10;;;;;;;14.61;36.58;101108.02;1708394;82;21672;-73
2022/04/28 09:48:53;;;;;;;1.32;0.10;;;;;;;14.69;36.70;101113.25;1708811;82;21086;-72
2022/04/28 09:51:23;;;;;;;0.20;0.10;;;;;;;14.81;35.98;101108.16;1712827;82;21010;-72
2022/04/28 09:53:54;;;;;;;0.40;0.10;;;;;;;14.92;35.80;101107.59;1720535;82;21566;-71
2022/04/28 09:56:28;;;;;;;0.20;0.10;;;;;;;15.06;34.66;101100.42;1706983;82;21054;-72
2022/04/28 09:59:05;;;;;;;0.98;0.10;;;;;;;15.16;33.90;101100.05;1694268;82;21073;-71
2022/04/28 10:01:34;;;;;;;0.10;0.10;;;;;;;15.15;33.25;101097.89;1703632;82;21074;-74
2022/04/28 10:04:01;;;;;;;0.42;0.10;;;;;;;15.17;32.97;101096.36;1707490;82;21078;-72
2022/04/28 10:06:31;;;;;;;0.40;0.23;;;;;;;15.24;32.63;101096.36;1703555;82;21038;-70
2022/04/28 10:09:17;;;;;;;2.77;0.10;;;;;;;15.32;32.60;101091.66;1685649;84;22161;-73
2022/04/28 10:11:47;;;;;;;0.20;0.10;;;;;;;15.44;32.74;101087.05;1707171;82;21034;-73
2022/04/28 10:14:14;;;;;;;3.70;0.20;;;;;;;15.62;32.46;101093.20;1708281;82;21102;-74
2022/04/28 10:16:45;;;;;;;0.42;0.23;;;;;;;15.74;31.89;101096.45;1707261;82;21102;-72
2022/04/28 10:19:28;;;;;;;0.60;0.20;;;;;;;15.81;32.01;101090.27;1685849;84;21179;-73
2022/04/28 10:22:08;;;;;;;1.15;0.40;;;;;;;15.85;31.16;101093.68;1706831;82;21590;-74
2022/04/28 10:33:16;;;;;;;0.28;0.10;;;;;;;15.65;31.53;101078.85;1708465;82;21533;-73
2022/04/28 10:35:53;;;;;;;1.07;0.10;;;;;;;15.66;31.64;101078.33;1708528;82;22140;-74
2022/04/28 10:38:26;;;;;;;;;;;;;;;15.69;31.62;101076.06;1710023;82;21625;-70
2022/04/28 10:41:08;;;;;;;3.60;0.17;;;;;;;15.70;31.55;101073.67;1707250;82;20479;-75
2022/04/28 10:43:43;;;;;;;1.47;0.25;;;;;;;15.64;31.32;101071.80;1709795;82;21125;-72
2022/04/28 10:46:27;;;;;;;0.78;0.17;;;;;;;15.72;31.44;101068.09;1708219;82;21167;-72
2022/04/28 10:48:53;;;;;;;1.67;0.37;;;;;;;15.79;31.22;101073.00;1704863;82;21109;-71
2022/04/28 10:51:29;;;;;;;0.95;0.30;;;;;;;15.86;31.05;101066.27;1706942;82;21185;-71
2022/04/28 10:54:03;;;;;;;1.27;0.53;;;;;;;15.92;30.53;101062.26;1707404;82;21035;-73
2022/04/28 10:56:43;;;;;;;1.05;0.70;;;;;;;16.00;30.65;101065.26;1708554;82;21034;-71
2022/04/28 10:59:34;;;;;;;0.72;0.60;;;;;;;16.10;30.57;101056.77;1694266;82;21046;-72
2022/04/28 11:02:16;;;;;;;2.75;0.78;;;;;;;16.23;30.69;101055.94;1691596;82;22205;-72
2022/04/28 11:04:52;;;;;;;1.60;0.42;;;;;;;16.39;30.61;101049.30;1707000;82;21080;-71
2022/04/28 11:07:24;;;;;;;4.00;0.28;;;;;;;16.55;30.51;101044.82;1708014;82;21486;-72
2022/04/28 11:09:57;;;;;;;1.37;0.28;;;;;;;16.68;30.88;101043.97;1708257;82;21109;-72
2022/04/28 11:12:35;;;;;;;1.60;0.88;;;;;;;16.78;30.37;101040.83;1686023;84;21054;-72
2022/04/28 11:15:10;;;;;;;1.30;0.80;;;;;;;16.84;29.90;101041.34;1707025;82;21074;-73
2022/04/28 11:17:43;;;;;;;;;;;;;;;16.85;29.59;101041.14;1687852;84;21487;-74
2022/04/28 11:23:10;;;;;;;1.10;0.60;;;;;;;16.78;29.71;101038.95;1768579;78;22240;-71
2022/04/28 11:25:36;;;;;;;2.70;0.90;;;;;;;16.65;29.76;101039.84;1704268;83;21076;-71
2022/04/28 11:28:09;;;;;;;1.45;0.62;;;;;;;16.53;30.03;101043.68;1694595;83;21887;-73
2022/04/28 11:30:41;;;;;;;1.12;0.68;;;;;;;16.43;30.29;101039.27;1699068;83;21088;-73
2022/04/28 11:33:12;;;;;;;3.98;0.85;;;;;;;16.41;30.54;101040.52;1678401;83;21116;-71
2022/04/28 11:35:40;;;;;;;5.37;1.10;;;;;;;16.45;30.54;101040.41;1708531;83;21041;-73
2022/04/28 11:38:08;;;;;;;1.80;0.65;;;;;;;16.52;30.27;101029.94;1709871;82;21092;-74
2022/04/28 11:40:37;;;;;;;2.75;0.78;;;;;;;16.58;30.17;101032.30;1711059;83;21576;-73
2022/04/28 11:43:04;;;;;;;0.90;0.60;;;;;;;16.57;30.01;101030.63;1711671;82;21362;-72
2022/04/28 11:45:32;;;;;;;3.87;0.50;;;;;;;16.57;30.28;101018.52;1716652;81;21056;-72
2022/04/28 11:48:03;;;;;;;3.95;0.40;;;;;;;16.61;30.63;101012.20;1725099;81;21053;-73
2022/04/28 11:50:34;;;;;;;3.77;0.47;;;;;;;16.64;30.64;101015.30;1710711;81;21873;-70
2022/04/28 11:53:09;;;;;;;1.05;0.60;;;;;;;16.69;30.86;101010.11;1738798;82;21058;-72
2022/04/28 11:55:38;;;;;;;5.33;0.75;;;;;;;16.68;30.89;101006.28;1697069;82;21148;-74
2022/04/28 11:58:07;;;;;;;0.70;0.45;;;;;;;16.69;30.78;101006.08;1700065;83;21060;-73
2022/04/28 12:00:44;;;;;;;2.85;0.50;;;;;;;16.73;30.69;101011.86;1708361;83;21097;-71
2022/04/28 12:03:27;;;;;;;1.30;0.70;;;;;;;16.77;29.69;101005.01;1698778;83;21547;-73
2022/04/28 12:05:53;;;;;;;2.00;0.62;;;;;;;16.71;30.02;101009.91;1698440;83;21061;-74
2022/04/28 12:08:24;;;;;;;1.10;0.30;;;;;;;16.68;30.00;101004.94;1698105;83;21528;-73
2022/04/28 12:19:20;;;;;;;4.97;1.05;;;;;;;16.57;30.11;100996.17;1698426;83;21013;-73
2022/04/28 12:21:47;;;;;;;1.10;0.50;;;;;;;16.54;30.54;100994.22;1698645;83;21105;-73
2022/04/28 12:24:18;;;;;;;1.37;0.47;;;;;;;16.55;30.84;100999.07;1683854;84;21042;-73
2022/04/28 12:26:49;;;;;;;1.25;0.40;;;;;;;16.58;30.88;100999.19;1696169;83;20985;-75